Time;durP1;ratioP1;P1;durP2;ratioP2;P2;SDS_P1;SDS_P2;PMS_P1;PMS_P2;Temp;Humidity;BMP_temperature;BMP_pressure;BME280_temperature;BME280_humidity;BME280_pressure;Samples;Min_cycle;Max_cycle;Signal;HPM_P1;HPM_P2
2021/10/11 00:02:25;;;;;;;95.20;58.30;;;9.50;99.90;;;;;;5011763;28;20478;-63
2021/10/11 00:04:53;;;;;;;77.87;50.40;;;9.50;99.90;;;;;;5029284;28;20449;-63
2021/10/11 00:07:20;;;;;;;81.57;51.27;;;9.40;99.90;;;;;;5031651;28;20791;-63
2021/10/11 00:09:47;;;;;;;86.27;53.17;;;9.40;99.90;;;;;;5031248;28;20853;-63
2021/10/11 00:12:13;;;;;;;111.07;67.67;;;9.30;99.90;;;;;;5031694;28;20448;-63
2021/10/11 00:14:40;;;;;;;135.40;79.70;;;9.30;99.90;;;;;;5035273;28;20445;-63
2021/10/11 00:17:07;;;;;;;90.40;57.53;;;9.30;99.90;;;;;;5032457;28;20795;-63
2021/10/11 00:19:35;;;;;;;109.50;62.30;;;9.20;99.90;;;;;;5035345;28;20465;-63
2021/10/11 00:22:04;;;;;;;92.53;58.27;;;9.20;99.90;;;;;;5035510;28;20511;-63
2021/10/11 00:24:31;;;;;;;144.73;87.27;;;9.30;99.90;;;;;;5035546;28;20457;-63
2021/10/11 00:26:57;;;;;;;116.33;76.47;;;9.20;99.90;;;;;;5035579;28;20452;-63
2021/10/11 00:29:24;;;;;;;138.70;92.30;;;9.30;99.90;;;;;;5018393;28;20465;-63
2021/10/11 00:31:51;;;;;;;110.83;77.93;;;9.40;99.90;;;;;;5015725;28;20824;-63
2021/10/11 00:34:17;;;;;;;106.17;60.60;;;9.50;99.90;;;;;;5015587;28;20448;-63
2021/10/11 00:36:44;;;;;;;112.10;59.60;;;9.60;99.90;;;;;;5015451;28;20449;-63
2021/10/11 00:39:12;;;;;;;123.50;68.87;;;9.60;99.90;;;;;;5015298;28;20453;-63
2021/10/11 00:41:39;;;;;;;104.60;60.30;;;9.70;99.90;;;;;;5032607;28;20973;-63
2021/10/11 00:44:06;;;;;;;97.87;57.47;;;9.80;99.90;;;;;;5035081;28;20480;-63
2021/10/11 00:46:33;;;;;;;93.73;58.60;;;9.90;99.90;;;;;;5035150;28;20965;-63
2021/10/11 00:49:00;;;;;;;98.17;57.63;;;10.00;99.90;;;;;;5025505;28;20453;-63
2021/10/11 00:51:26;;;;;;;99.37;57.90;;;10.00;99.90;;;;;;5015248;28;20441;-62
2021/10/11 00:53:53;;;;;;;87.50;53.03;;;10.10;99.90;;;;;;5015369;28;20453;-63
2021/10/11 00:56:22;;;;;;;82.77;53.80;;;10.10;99.90;;;;;;5015164;28;20453;-63
2021/10/11 00:58:49;;;;;;;86.10;55.10;;;10.20;99.90;;;;;;5022197;28;20503;-63
2021/10/11 01:01:15;;;;;;;83.20;50.07;;;10.30;99.90;;;;;;5034842;28;20561;-63
2021/10/11 01:03:42;;;;;;;78.93;48.93;;;10.30;99.90;;;;;;5034741;28;20476;-63
2021/10/11 01:06:10;;;;;;;74.70;46.20;;;10.30;99.90;;;;;;5034802;28;20953;-63
2021/10/11 01:08:36;;;;;;;76.83;48.63;;;10.40;99.90;;;;;;5034623;28;20452;-63
2021/10/11 01:11:03;;;;;;;65.17;43.10;;;10.40;99.90;;;;;;5034139;28;20484;-63
2021/10/11 01:13:31;;;;;;;66.67;43.33;;;10.50;99.90;;;;;;5034667;28;20445;-63
2021/10/11 01:15:58;;;;;;;65.10;44.93;;;10.50;99.90;;;;;;5034660;28;20448;-63
2021/10/11 01:18:25;;;;;;;61.23;44.57;;;10.50;99.90;;;;;;5034393;28;20456;-63
2021/10/11 01:20:53;;;;;;;66.97;42.73;;;10.70;99.90;;;;;;5033838;28;20491;-63
2021/10/11 01:23:25;;;;;;;63.57;41.77;;;10.60;99.90;;;;;;5034326;28;20485;-63
2021/10/11 01:25:51;;;;;;;57.20;40.37;;;10.60;99.90;;;;;;5033769;28;20453;-63
2021/10/11 01:28:18;;;;;;;55.40;37.60;;;10.70;99.90;;;;;;5034212;28;20444;-63
2021/10/11 01:30:45;;;;;;;58.47;40.60;;;10.70;99.90;;;;;;5016641;28;20492;-63
2021/10/11 01:33:12;;;;;;;60.40;39.97;;;10.80;99.90;;;;;;5014545;28;20451;-63
2021/10/11 01:35:39;;;;;;;52.37;36.47;;;10.80;99.90;;;;;;5014509;28;20450;-63
2021/10/11 01:38:10;;;;;;;45.40;35.50;;;10.80;99.90;;;;;;5014291;28;20481;-63
2021/10/11 01:40:37;;;;;;;49.40;35.50;;;10.90;99.90;;;;;;5014224;28;20477;-63
2021/10/11 01:43:05;;;;;;;49.30;35.30;;;10.90;99.90;;;;;;4994716;28;20485;-63
2021/10/11 01:45:32;;;;;;;49.20;35.77;;;11.00;99.90;;;;;;5001273;28;20537;-63
2021/10/11 01:47:59;;;;;;;49.27;35.97;;;11.00;99.90;;;;;;5014141;28;20536;-63
2021/10/11 01:50:26;;;;;;;50.47;36.03;;;11.00;99.90;;;;;;5014206;28;20469;-63
2021/10/11 01:52:52;;;;;;;51.23;35.97;;;11.10;99.90;;;;;;5014343;28;20446;-63
2021/10/11 01:55:20;;;;;;;55.17;37.17;;;11.20;99.90;;;;;;5033939;28;21061;-63
2021/10/11 01:57:47;;;;;;;53.80;39.03;;;11.20;99.90;;;;;;5033703;28;20445;-63
2021/10/11 02:00:14;;;;;;;48.83;37.37;;;11.20;99.90;;;;;;5033699;28;20468;-63
2021/10/11 02:02:41;;;;;;;47.43;35.20;;;11.20;99.90;;;;;;5033618;28;20445;-63
2021/10/11 02:05:09;;;;;;;46.73;36.20;;;11.10;99.90;;;;;;5032055;28;20448;-63
2021/10/11 02:07:35;;;;;;;49.53;37.77;;;11.10;99.90;;;;;;5013819;28;20932;-63
2021/10/11 02:10:02;;;;;;;53.23;36.60;;;11.20;99.90;;;;;;5013299;28;20497;-63
2021/10/11 02:12:30;;;;;;;47.87;35.73;;;11.20;99.90;;;;;;5013931;28;20454;-63
2021/10/11 02:14:57;;;;;;;55.70;35.07;;;11.20;99.90;;;;;;5013645;28;20438;-63
2021/10/11 02:17:24;;;;;;;51.90;33.87;;;11.20;99.90;;;;;;5019383;28;20437;-63
2021/10/11 02:19:51;;;;;;;48.30;34.90;;;11.20;99.90;;;;;;5033084;28;20561;-63
2021/10/11 02:22:18;;;;;;;48.10;36.70;;;11.20;99.90;;;;;;5033372;28;20472;-63
2021/10/11 02:24:44;;;;;;;43.73;34.47;;;11.20;99.90;;;;;;5033145;28;20492;-63
2021/10/11 02:27:11;;;;;;;46.40;34.43;;;11.20;99.90;;;;;;5033337;28;20457;-63
2021/10/11 02:29:40;;;;;;;48.50;35.20;;;11.20;99.90;;;;;;5026945;28;20458;-63
2021/10/11 02:32:07;;;;;;;48.20;34.17;;;11.20;99.90;;;;;;5013516;28;20453;-63
2021/10/11 02:34:33;;;;;;;50.83;36.70;;;11.20;99.90;;;;;;5013431;28;20475;-63
2021/10/11 02:37:00;;;;;;;50.63;35.40;;;11.30;99.90;;;;;;5012161;28;20446;-63
2021/10/11 02:39:27;;;;;;;44.43;35.10;;;11.30;99.90;;;;;;5012921;28;20533;-63
2021/10/11 02:41:53;;;;;;;60.87;40.53;;;11.20;99.90;;;;;;5019586;28;20480;-63
2021/10/11 02:44:20;;;;;;;48.70;37.93;;;11.20;99.90;;;;;;5032753;28;20484;-63
2021/10/11 02:46:48;;;;;;;45.50;38.77;;;11.20;99.90;;;;;;5033022;28;20444;-64
2021/10/11 02:49:15;;;;;;;50.60;35.17;;;11.20;99.90;;;;;;5032588;28;20453;-63
2021/10/11 02:51:42;;;;;;;45.97;34.40;;;11.20;99.90;;;;;;5013939;28;20481;-63
2021/10/11 02:54:09;;;;;;;48.10;37.20;;;11.20;99.90;;;;;;5013188;28;20438;-64
2021/10/11 02:56:36;;;;;;;42.50;32.87;;;11.10;99.90;;;;;;5012966;28;20446;-63
2021/10/11 02:59:02;;;;;;;49.47;33.67;;;11.10;99.90;;;;;;5012623;28;20453;-64
2021/10/11 03:01:29;;;;;;;47.63;34.13;;;11.10;99.90;;;;;;5029054;28;20441;-63
2021/10/11 03:03:57;;;;;;;52.97;35.93;;;11.10;99.90;;;;;;5032488;28;20484;-63
2021/10/11 03:06:24;;;;;;;50.23;35.10;;;11.10;99.90;;;;;;5032496;28;20445;-63
2021/10/11 03:08:50;;;;;;;55.73;35.20;;;11.00;99.90;;;;;;5032415;28;20446;-64
2021/10/11 03:11:17;;;;;;;44.43;34.17;;;11.10;99.90;;;;;;5032415;28;20477;-63
2021/10/11 03:13:44;;;;;;;44.57;31.00;;;11.10;99.90;;;;;;5016077;28;20442;-63
2021/10/11 03:16:10;;;;;;;49.10;33.73;;;11.10;99.90;;;;;;5012789;28;20461;-63
2021/10/11 03:18:38;;;;;;;51.80;34.57;;;11.10;99.90;;;;;;5012337;28;20457;-63
2021/10/11 03:21:06;;;;;;;49.23;35.13;;;11.00;99.90;;;;;;5012469;28;20462;-63
2021/10/11 03:23:32;;;;;;;38.53;29.40;;;11.00;99.90;;;;;;5012543;28;21009;-63
2021/10/11 03:25:59;;;;;;;36.37;29.30;;;11.00;99.90;;;;;;5032027;28;21447;-63
2021/10/11 03:28:25;;;;;;;34.63;29.00;;;11.00;99.90;;;;;;5031945;28;20814;-64
2021/10/11 03:30:52;;;;;;;34.23;27.37;;;10.90;99.90;;;;;;5032312;28;20476;-63
2021/10/11 03:33:19;;;;;;;36.43;28.70;;;10.90;99.90;;;;;;5032107;28;20449;-63
2021/10/11 03:35:45;;;;;;;37.80;29.53;;;10.90;99.90;;;;;;5029013;28;20449;-63
2021/10/11 03:38:13;;;;;;;41.13;29.47;;;10.90;99.90;;;;;;5012216;28;20442;-63
2021/10/11 03:40:40;;;;;;;43.77;35.03;;;10.90;99.90;;;;;;5012052;28;20489;-63
2021/10/11 03:43:07;;;;;;;39.60;35.30;;;10.80;99.90;;;;;;5012038;28;20446;-63
2021/10/11 03:45:33;;;;;;;42.83;31.07;;;10.80;99.90;;;;;;5012383;28;20442;-63
2021/10/11 03:48:00;;;;;;;36.87;28.70;;;10.80;99.90;;;;;;5011799;28;20466;-64
2021/10/11 03:50:27;;;;;;;38.13;28.60;;;10.80;99.90;;;;;;5011944;28;20469;-64
2021/10/11 03:52:54;;;;;;;39.57;34.27;;;10.90;99.90;;;;;;5012055;28;20450;-64
2021/10/11 03:55:22;;;;;;;35.30;28.93;;;10.90;99.90;;;;;;5012027;28;20438;-64
2021/10/11 03:57:49;;;;;;;31.60;26.33;;;10.80;99.90;;;;;;5011889;28;20454;-64
2021/10/11 04:00:16;;;;;;;31.67;27.23;;;10.90;99.90;;;;;;5022363;28;20472;-64
2021/10/11 04:02:43;;;;;;;36.13;27.47;;;10.90;99.90;;;;;;5016776;28;21070;-63
2021/10/11 04:05:10;;;;;;;37.40;32.37;;;10.90;99.90;;;;;;5012029;28;20481;-64
2021/10/11 04:07:40;;;;;;;43.63;32.30;;;10.90;99.90;;;;;;5011850;28;20457;-64
2021/10/11 04:10:09;;;;;;;40.20;30.40;;;10.80;99.90;;;;;;5020363;28;20481;-64
2021/10/11 04:12:38;;;;;;;33.53;28.50;;;10.80;99.90;;;;;;5023977;28;20438;-64
2021/10/11 04:15:07;;;;;;;46.00;32.60;;;10.80;99.90;;;;;;5011803;28;20441;-64
2021/10/11 04:17:37;;;;;;;42.70;31.70;;;10.90;99.90;;;;;;5011852;28;20452;-64
2021/10/11 04:20:05;;;;;;;37.50;30.37;;;11.00;99.90;;;;;;5011589;28;20466;-64
2021/10/11 04:22:32;;;;;;;41.00;31.47;;;11.00;99.90;;;;;;5012057;28;20457;-64
2021/10/11 04:24:59;;;;;;;37.30;30.73;;;11.10;99.90;;;;;;5011457;28;20477;-64
2021/10/11 04:27:25;;;;;;;41.37;30.17;;;11.10;99.90;;;;;;5011821;28;20975;-64
2021/10/11 04:29:54;;;;;;;42.17;31.20;;;11.00;99.90;;;;;;5011482;28;20462;-64
2021/10/11 04:32:20;;;;;;;47.53;35.30;;;11.10;99.90;;;;;;5011649;28;20859;-64
2021/10/11 04:34:47;;;;;;;42.10;32.60;;;11.10;99.90;;;;;;5024261;28;20464;-64
2021/10/11 04:37:13;;;;;;;44.80;33.20;;;11.20;99.90;;;;;;5031395;28;20453;-65
2021/10/11 04:39:40;;;;;;;42.40;32.53;;;11.10;99.90;;;;;;5031063;28;20465;-66
2021/10/11 04:42:07;;;;;;;44.23;34.83;;;11.20;99.90;;;;;;5020935;28;20457;-66
2021/10/11 04:44:33;;;;;;;51.50;36.03;;;11.20;99.90;;;;;;5030872;28;20480;-66
2021/10/11 04:47:01;;;;;;;42.63;34.37;;;11.20;99.90;;;;;;5030793;28;20440;-66
2021/10/11 04:49:28;;;;;;;45.33;31.07;;;11.20;99.90;;;;;;5030870;28;20851;-66
2021/10/11 04:51:55;;;;;;;44.00;34.13;;;11.30;99.90;;;;;;5030431;28;20812;-66
2021/10/11 04:54:21;;;;;;;41.17;30.27;;;11.30;99.90;;;;;;5030989;28;20441;-66
2021/10/11 04:56:48;;;;;;;38.07;31.40;;;11.30;99.90;;;;;;5031041;28;20452;-66
2021/10/11 04:59:15;;;;;;;42.50;33.20;;;11.40;99.90;;;;;;5030794;28;20441;-66
2021/10/11 05:01:41;;;;;;;40.77;32.37;;;11.30;99.90;;;;;;5033496;28;20448;-66
2021/10/11 05:04:10;;;;;;;43.23;33.77;;;11.40;99.90;;;;;;5034618;28;21009;-66
2021/10/11 05:06:37;;;;;;;40.63;32.43;;;11.40;99.90;;;;;;5034725;28;20448;-66
2021/10/11 05:09:04;;;;;;;41.90;33.33;;;11.40;99.90;;;;;;5034050;28;21442;-66
2021/10/11 05:11:31;;;;;;;40.50;32.10;;;11.40;99.90;;;;;;5018884;28;20450;-66
2021/10/11 05:13:57;;;;;;;47.33;33.10;;;11.40;99.90;;;;;;5014654;28;20442;-65
2021/10/11 05:16:26;;;;;;;46.90;32.20;;;11.40;99.90;;;;;;5014787;28;20862;-66
2021/10/11 05:18:53;;;;;;;49.50;34.13;;;11.50;99.90;;;;;;5014404;28;20549;-66
2021/10/11 05:21:21;;;;;;;48.27;31.80;;;11.50;99.90;;;;;;5014575;28;20533;-66
2021/10/11 05:23:48;;;;;;;46.87;32.93;;;11.50;99.90;;;;;;5029862;28;20872;-66
2021/10/11 05:26:15;;;;;;;43.43;33.30;;;11.50;99.90;;;;;;5034247;28;20528;-66
2021/10/11 05:28:42;;;;;;;45.13;33.70;;;11.50;99.90;;;;;;5034177;28;20880;-66
2021/10/11 05:31:09;;;;;;;40.90;30.97;;;11.50;99.90;;;;;;5034065;28;20476;-66
2021/10/11 05:33:36;;;;;;;41.97;30.80;;;11.60;99.90;;;;;;5034048;28;20445;-65
2021/10/11 05:36:03;;;;;;;36.07;25.97;;;11.60;99.90;;;;;;5018370;28;20449;-66
2021/10/11 05:38:33;;;;;;;37.33;25.10;;;11.60;99.90;;;;;;5014009;28;20454;-66
2021/10/11 05:41:00;;;;;;;37.37;26.83;;;11.70;99.90;;;;;;5014013;28;20465;-66
2021/10/11 05:43:26;;;;;;;40.03;27.00;;;11.70;99.90;;;;;;5014077;28;20445;-66
2021/10/11 05:45:53;;;;;;;38.67;24.50;;;11.70;99.90;;;;;;5014095;28;20474;-66
2021/10/11 05:48:20;;;;;;;38.87;26.63;;;11.80;99.90;;;;;;5032221;28;20449;-66
2021/10/11 05:50:46;;;;;;;37.17;23.33;;;11.80;99.90;;;;;;5033590;28;20835;-66
2021/10/11 05:53:13;;;;;;;31.63;22.40;;;11.90;99.90;;;;;;5033666;28;20946;-66
2021/10/11 05:55:41;;;;;;;29.57;21.20;;;11.90;99.90;;;;;;5033564;28;20433;-66
2021/10/11 05:58:08;;;;;;;31.30;19.03;;;12.00;99.90;;;;;;5031909;28;20441;-66
2021/10/11 06:00:35;;;;;;;23.87;17.90;;;12.00;99.90;;;;;;5013619;28;20950;-66
2021/10/11 06:03:01;;;;;;;27.40;17.77;;;12.00;99.90;;;;;;5013518;28;20841;-66
2021/10/11 06:05:28;;;;;;;28.03;14.90;;;12.10;99.90;;;;;;5013674;28;20482;-66
2021/10/11 06:07:55;;;;;;;23.63;14.87;;;12.10;99.90;;;;;;5013339;28;20512;-66
2021/10/11 06:10:21;;;;;;;23.83;13.53;;;12.20;99.90;;;;;;5013253;28;20882;-66
2021/10/11 06:12:49;;;;;;;27.10;14.60;;;12.30;99.90;;;;;;5013545;28;20446;-66
2021/10/11 06:15:16;;;;;;;21.17;14.33;;;12.30;99.90;;;;;;5013702;28;20438;-66
2021/10/11 06:17:43;;;;;;;18.27;13.27;;;12.40;99.90;;;;;;5024111;28;20824;-66
2021/10/11 06:20:11;;;;;;;20.67;14.30;;;12.40;99.90;;;;;;5033382;28;20532;-66
2021/10/11 06:22:38;;;;;;;17.70;14.30;;;12.50;99.90;;;;;;5033278;28;20488;-66
2021/10/11 06:25:05;;;;;;;21.17;12.83;;;12.50;99.90;;;;;;5033048;28;20481;-66
2021/10/11 06:27:32;;;;;;;13.17;11.40;;;12.50;99.90;;;;;;5033248;28;20437;-66
2021/10/11 06:30:00;;;;;;;18.83;13.07;;;12.50;99.90;;;;;;5021593;28;20470;-66
2021/10/11 06:32:27;;;;;;;23.13;11.83;;;12.50;99.90;;;;;;5013266;28;20442;-66
2021/10/11 06:34:54;;;;;;;16.23;11.93;;;12.60;99.90;;;;;;5013204;28;20812;-66
2021/10/11 06:37:20;;;;;;;16.33;10.87;;;12.60;99.90;;;;;;5013055;28;20446;-66
2021/10/11 06:39:47;;;;;;;20.33;11.53;;;12.60;99.90;;;;;;5012836;28;20859;-66
2021/10/11 06:42:14;;;;;;;17.33;10.57;;;12.60;99.90;;;;;;5027972;28;20520;-66
2021/10/11 06:44:41;;;;;;;13.90;11.57;;;12.70;99.90;;;;;;5032627;28;21024;-66
2021/10/11 06:47:09;;;;;;;15.07;10.57;;;12.70;99.90;;;;;;5032712;28;20484;-66
2021/10/11 06:49:36;;;;;;;22.40;12.70;;;12.70;99.90;;;;;;5032398;28;20873;-66
2021/10/11 06:52:03;;;;;;;17.50;11.93;;;12.80;99.90;;;;;;5032515;28;20441;-66
2021/10/11 06:54:30;;;;;;;19.10;12.80;;;12.80;99.90;;;;;;5014925;28;20450;-66
2021/10/11 06:56:57;;;;;;;18.73;11.87;;;12.80;99.90;;;;;;5012735;28;20891;-66
2021/10/11 06:59:24;;;;;;;16.07;13.13;;;12.80;99.90;;;;;;5012405;28;20465;-66
2021/10/11 07:01:50;;;;;;;17.77;11.73;;;12.80;99.90;;;;;;5021757;28;20453;-66
2021/10/11 07:04:20;;;;;;;21.30;13.43;;;12.70;99.90;;;;;;5032415;28;20823;-66
2021/10/11 07:06:47;;;;;;;16.47;13.43;;;12.70;99.90;;;;;;5032362;28;20460;-67
2021/10/11 07:09:13;;;;;;;18.83;12.10;;;12.70;99.90;;;;;;5030414;28;20445;-66
2021/10/11 07:11:40;;;;;;;19.00;10.90;;;12.70;99.90;;;;;;5012498;28;20923;-66
2021/10/11 07:14:07;;;;;;;19.90;11.63;;;12.80;99.90;;;;;;5012528;28;20453;-66
2021/10/11 07:16:33;;;;;;;13.60;11.50;;;12.70;99.90;;;;;;5012458;28;20445;-66
2021/10/11 07:19:00;;;;;;;24.90;12.93;;;12.80;99.90;;;;;;5012036;28;20442;-66
2021/10/11 07:21:28;;;;;;;13.70;9.63;;;12.90;99.90;;;;;;5012387;28;20445;-66
2021/10/11 07:23:55;;;;;;;17.20;10.87;;;12.90;99.90;;;;;;5011700;28;20827;-66
2021/10/11 07:26:21;;;;;;;15.13;10.57;;;13.00;99.90;;;;;;5012205;28;20482;-66
2021/10/11 07:28:48;;;;;;;13.23;9.73;;;13.10;99.90;;;;;;5011911;28;20453;-66
2021/10/11 07:31:15;;;;;;;16.97;11.10;;;13.20;99.90;;;;;;5012182;28;20458;-66
2021/10/11 07:33:41;;;;;;;14.50;12.63;;;13.40;99.90;;;;;;5031070;28;20456;-66
2021/10/11 07:36:08;;;;;;;12.20;10.00;;;13.50;99.90;;;;;;5031751;28;20437;-66
2021/10/11 07:38:36;;;;;;;14.00;11.57;;;13.50;99.90;;;;;;5031696;28;20440;-66
2021/10/11 07:41:03;;;;;;;12.87;11.70;;;13.60;99.90;;;;;;5020485;28;20466;-66
2021/10/11 07:43:30;;;;;;;12.87;11.50;;;13.60;99.90;;;;;;5012161;28;20452;-66
2021/10/11 07:46:02;;;;;;;13.57;12.33;;;13.70;99.90;;;;;;5011790;28;20477;-66
2021/10/11 07:48:29;;;;;;;13.00;11.60;;;13.70;99.90;;;;;;5011793;28;20508;-66
2021/10/11 07:50:56;;;;;;;13.17;12.10;;;13.70;99.90;;;;;;5021567;28;20469;-66
2021/10/11 07:53:23;;;;;;;15.20;13.80;;;13.70;99.90;;;;;;5031322;28;20445;-66
2021/10/11 07:55:51;;;;;;;14.77;12.63;;;13.80;99.90;;;;;;5031508;28;20437;-66
2021/10/11 07:58:18;;;;;;;12.87;11.50;;;13.80;99.90;;;;;;5031322;28;20452;-66
2021/10/11 08:00:44;;;;;;;13.43;12.50;;;13.80;99.90;;;;;;5031453;28;20464;-66
2021/10/11 08:03:11;;;;;;;15.73;12.63;;;13.80;99.90;;;;;;5020358;28;20956;-66
2021/10/11 08:05:38;;;;;;;14.17;13.00;;;13.90;99.90;;;;;;5011535;28;20477;-66
2021/10/11 08:08:05;;;;;;;15.17;13.80;;;13.90;99.90;;;;;;5011730;28;20931;-66
2021/10/11 08:10:33;;;;;;;14.83;13.30;;;14.00;99.90;;;;;;5013885;28;20553;-66
2021/10/11 08:13:01;;;;;;;14.53;13.43;;;14.00;99.90;;;;;;5031416;28;20791;-66
2021/10/11 08:15:28;;;;;;;21.37;14.70;;;14.00;99.90;;;;;;5031372;28;20444;-66
2021/10/11 08:17:55;;;;;;;15.27;13.80;;;14.00;99.90;;;;;;5031260;28;20447;-65
2021/10/11 08:20:22;;;;;;;14.47;13.23;;;14.10;99.90;;;;;;5030380;28;20465;-65
2021/10/11 08:22:48;;;;;;;14.53;13.40;;;14.20;99.90;;;;;;5011601;28;20450;-65
2021/10/11 08:25:16;;;;;;;20.40;14.63;;;14.30;99.90;;;;;;5011459;28;20892;-65
2021/10/11 08:27:43;;;;;;;15.00;13.70;;;14.50;99.90;;;;;;5011341;28;20975;-66
2021/10/11 08:30:11;;;;;;;14.93;14.00;;;14.70;99.90;;;;;;5011530;28;20488;-66
2021/10/11 08:32:38;;;;;;;16.87;15.43;;;14.90;99.90;;;;;;5011439;28;20461;-65
2021/10/11 08:35:06;;;;;;;17.27;16.00;;;15.10;99.90;;;;;;5014009;28;20480;-65
2021/10/11 08:37:32;;;;;;;18.50;16.63;;;15.20;99.90;;;;;;5015343;28;20446;-66
2021/10/11 08:39:59;;;;;;;15.83;14.83;;;15.40;99.90;;;;;;5015075;28;20462;-66
2021/10/11 08:42:26;;;;;;;16.97;15.57;;;15.60;99.90;;;;;;5015097;28;20449;-65
2021/10/11 08:44:52;;;;;;;20.50;18.30;;;15.80;99.90;;;;;;5021565;28;20444;-65
2021/10/11 08:47:20;;;;;;;17.70;16.37;;;15.70;99.90;;;;;;5034986;28;20448;-65
2021/10/11 08:49:50;;;;;;;19.27;17.80;;;15.80;99.90;;;;;;5034626;28;20472;-65
2021/10/11 08:52:21;;;;;;;18.53;17.13;;;15.90;99.90;;;;;;5035112;28;20444;-66
2021/10/11 08:54:48;;;;;;;18.47;17.23;;;16.10;99.90;;;;;;5029149;28;20532;-65
2021/10/11 08:57:23;;;;;;;18.03;16.83;;;16.00;99.90;;;;;;5014962;28;20445;-65
2021/10/11 08:59:50;;;;;;;17.47;16.27;;;16.30;99.90;;;;;;5014726;28;20461;-66
2021/10/11 09:02:20;;;;;;;17.40;16.10;;;16.40;99.90;;;;;;5014968;28;20442;-66
2021/10/11 09:04:50;;;;;;;17.47;16.37;;;16.30;99.90;;;;;;5014668;28;20481;-66
2021/10/11 09:07:17;;;;;;;16.80;15.70;;;16.40;99.90;;;;;;5021781;28;20445;-66
2021/10/11 09:09:47;;;;;;;17.47;16.17;;;16.40;99.90;;;;;;5034141;28;20854;-66
2021/10/11 09:12:18;;;;;;;16.40;15.50;;;16.30;99.90;;;;;;5034453;28;20445;-66
2021/10/11 09:14:46;;;;;;;17.17;16.07;;;16.30;99.90;;;;;;5034109;28;20452;-66
2021/10/11 09:17:22;;;;;;;17.10;15.80;;;16.10;99.90;;;;;;4994942;28;20443;-66
2021/10/11 09:19:58;;;;;;;17.70;16.60;;;16.20;99.90;;;;;;4994689;28;21000;-66
2021/10/11 09:22:32;;;;;;;16.83;15.83;;;16.30;99.90;;;;;;4994876;28;20864;-66
2021/10/11 09:24:59;;;;;;;18.50;16.80;;;16.40;99.90;;;;;;4998174;28;20963;-66
2021/10/11 09:27:26;;;;;;;19.70;17.67;;;16.60;99.90;;;;;;5034123;28;20479;-66
2021/10/11 09:29:53;;;;;;;18.37;16.67;;;16.60;99.90;;;;;;5033887;28;20464;-66
2021/10/11 09:32:19;;;;;;;18.20;17.00;;;16.70;99.90;;;;;;5028770;28;20457;-65
2021/10/11 09:34:47;;;;;;;23.43;18.50;;;16.70;99.90;;;;;;5021130;28;20452;-66
2021/10/11 09:37:15;;;;;;;18.30;16.80;;;16.80;99.90;;;;;;5019339;28;20450;-66
2021/10/11 09:39:43;;;;;;;17.90;16.90;;;16.80;99.90;;;;;;5013956;28;20556;-67
2021/10/11 09:42:16;;;;;;;17.77;16.60;;;16.80;99.90;;;;;;5014405;28;20446;-66
2021/10/11 09:44:52;;;;;;;22.07;19.80;;;16.70;99.90;;;;;;5013885;28;20449;-66
2021/10/11 09:47:26;;;;;;;18.40;17.00;;;16.40;99.90;;;;;;5013563;28;20828;-66
2021/10/11 09:49:53;;;;;;;18.80;17.60;;;16.20;99.90;;;;;;5013639;28;20568;-66
2021/10/11 09:52:21;;;;;;;20.10;18.47;;;16.20;99.90;;;;;;5023314;28;20449;-66
2021/10/11 09:54:49;;;;;;;18.27;16.97;;;16.00;99.90;;;;;;5033835;28;20949;-66
2021/10/11 09:57:16;;;;;;;17.97;16.70;;;16.10;99.90;;;;;;5033336;28;20445;-66
2021/10/11 09:59:44;;;;;;;18.30;16.87;;;16.10;99.90;;;;;;5033342;28;20472;-66
2021/10/11 10:02:12;;;;;;;20.40;18.90;;;16.50;99.90;;;;;;5026164;28;20493;-66
2021/10/11 10:04:41;;;;;;;18.67;17.30;;;16.80;99.90;;;;;;5013695;28;20453;-66
2021/10/11 10:07:12;;;;;;;18.87;17.43;;;16.90;99.90;;;;;;5013501;28;20489;-66
2021/10/11 10:09:44;;;;;;;17.80;16.70;;;17.00;99.90;;;;;;5014638;28;20585;-66
2021/10/11 10:12:12;;;;;;;17.80;16.40;;;16.90;99.90;;;;;;5033055;28;20445;-66
2021/10/11 10:14:39;;;;;;;18.83;17.40;;;17.10;99.90;;;;;;5033847;28;20468;-66
2021/10/11 10:17:06;;;;;;;17.73;16.83;;;17.00;99.90;;;;;;5032760;28;20442;-66
2021/10/11 10:19:35;;;;;;;17.90;16.73;;;17.00;99.90;;;;;;5033086;28;20473;-66
2021/10/11 10:22:13;;;;;;;18.30;16.67;;;17.20;99.90;;;;;;5027946;28;20481;-66
2021/10/11 10:24:42;;;;;;;18.10;16.90;;;17.20;99.90;;;;;;5013519;28;20842;-66
2021/10/11 10:27:10;;;;;;;18.10;16.80;;;17.20;99.90;;;;;;5013334;28;20536;-66
2021/10/11 10:29:42;;;;;;;19.17;17.70;;;17.00;99.90;;;;;;5013084;28;20470;-66
2021/10/11 10:32:10;;;;;;;18.73;17.20;;;17.00;99.90;;;;;;5013110;28;20875;-66
2021/10/11 10:34:37;;;;;;;20.83;19.40;;;17.30;99.90;;;;;;5013244;28;20469;-66
2021/10/11 10:37:06;;;;;;;18.63;17.53;;;17.50;99.90;;;;;;5013081;28;20453;-66
2021/10/11 10:39:38;;;;;;;18.40;17.27;;;17.40;99.90;;;;;;5012916;28;20978;-66
2021/10/11 10:42:08;;;;;;;18.70;17.40;;;17.50;99.90;;;;;;5013175;28;20813;-66
2021/10/11 10:44:44;;;;;;;19.27;17.80;;;17.60;99.90;;;;;;5013069;28;20936;-66
2021/10/11 10:47:11;;;;;;;18.90;17.60;;;17.40;99.90;;;;;;5017188;28;20480;-67
2021/10/11 10:49:40;;;;;;;17.80;16.90;;;17.40;99.90;;;;;;5032442;28;20843;-65
2021/10/11 10:52:12;;;;;;;19.57;18.27;;;17.60;99.90;;;;;;5032416;28;20449;-66
2021/10/11 10:54:41;;;;;;;19.70;18.40;;;18.00;99.90;;;;;;5032726;28;20484;-66
2021/10/11 10:57:13;;;;;;;19.80;18.57;;;18.20;99.90;;;;;;5019084;28;20729;-66
2021/10/11 10:59:40;;;;;;;19.37;18.20;;;18.20;99.90;;;;;;5032024;28;20520;-66
2021/10/11 11:02:09;;;;;;;20.30;18.90;;;18.40;99.90;;;;;;5032028;28;20966;-66
2021/10/11 11:04:37;;;;;;;18.47;17.67;;;18.30;99.90;;;;;;5032615;28;20445;-67
2021/10/11 11:07:06;;;;;;;19.87;18.43;;;18.20;99.90;;;;;;5029546;28;20485;-65
2021/10/11 11:09:40;;;;;;;18.83;17.73;;;17.70;99.90;;;;;;5012246;28;20513;-65
2021/10/11 11:12:08;;;;;;;20.60;19.10;;;17.60;99.90;;;;;;5012868;28;20448;-65
2021/10/11 11:14:35;;;;;;;19.03;17.87;;;18.00;99.90;;;;;;5012503;28;20457;-65
2021/10/11 11:17:03;;;;;;;19.63;18.47;;;18.10;99.90;;;;;;5012481;28;20465;-65
2021/10/11 11:19:37;;;;;;;19.60;18.50;;;18.10;99.90;;;;;;5012211;28;20466;-65
2021/10/11 11:22:04;;;;;;;19.83;18.57;;;18.80;99.90;;;;;;5012333;28;20449;-65
2021/10/11 11:24:31;;;;;;;20.67;19.23;;;18.20;99.90;;;;;;5012149;28;20442;-65
2021/10/11 11:26:59;;;;;;;19.17;18.27;;;17.80;99.90;;;;;;5012105;28;20576;-65
2021/10/11 11:29:27;;;;;;;20.07;18.87;;;18.90;99.90;;;;;;5013608;28;20654;-65
2021/10/11 11:31:54;;;;;;;19.90;18.80;;;21.20;99.00;;;;;;5012371;28;20458;-65
2021/10/11 11:34:21;;;;;;;20.57;19.43;;;21.90;91.80;;;;;;5012525;28;20513;-65
2021/10/11 11:36:51;;;;;;;21.83;20.70;;;21.70;90.50;;;;;;5012030;28;20442;-65
2021/10/11 11:39:18;;;;;;;23.53;21.53;;;21.00;90.80;;;;;;5011861;28;20454;-65
2021/10/11 11:41:53;;;;;;;21.07;19.93;;;20.40;91.40;;;;;;5011917;28;20450;-65
2021/10/11 11:44:24;;;;;;;20.17;19.07;;;20.10;92.70;;;;;;5012341;28;20951;-65
2021/10/11 11:47:03;;;;;;;21.80;20.80;;;20.40;93.40;;;;;;5011980;28;20485;-65
2021/10/11 11:49:29;;;;;;;19.70;18.67;;;20.90;93.50;;;;;;5012146;28;20822;-66
2021/10/11 11:52:07;;;;;;;19.80;18.77;;;21.10;92.00;;;;;;5012105;28;20450;-65
2021/10/11 11:54:33;;;;;;;20.13;18.60;;;20.10;90.30;;;;;;4992448;28;20457;-66
2021/10/11 11:57:01;;;;;;;19.77;18.67;;;19.50;91.50;;;;;;4992325;28;20450;-66
2021/10/11 11:59:29;;;;;;;20.50;19.20;;;19.30;93.10;;;;;;5011223;28;21018;-65
2021/10/11 12:01:56;;;;;;;19.57;18.63;;;18.90;94.30;;;;;;5011896;28;20481;-65
2021/10/11 12:04:24;;;;;;;20.60;19.17;;;18.70;95.30;;;;;;5029420;28;20457;-65
2021/10/11 12:06:51;;;;;;;19.20;18.30;;;18.90;96.40;;;;;;5031541;28;20822;-65
2021/10/11 12:09:22;;;;;;;21.13;19.93;;;19.50;95.80;;;;;;5030210;28;20468;-65
2021/10/11 12:11:49;;;;;;;19.17;18.10;;;19.80;95.20;;;;;;5031487;28;20452;-66
2021/10/11 12:14:26;;;;;;;21.03;19.70;;;20.40;92.50;;;;;;5029631;28;20445;-66
2021/10/11 12:17:04;;;;;;;20.93;19.63;;;19.90;91.60;;;;;;5031440;28;20444;-65
2021/10/11 12:19:33;;;;;;;20.63;19.20;;;19.80;92.80;;;;;;5012345;28;20924;-65
2021/10/11 12:22:01;;;;;;;20.53;19.33;;;20.10;93.10;;;;;;5011465;28;20486;-66
2021/10/11 12:24:32;;;;;;;19.80;18.50;;;20.20;91.90;;;;;;4992078;28;20798;-66
2021/10/11 12:27:00;;;;;;;20.70;19.53;;;20.60;91.70;;;;;;4992003;28;20889;-66
2021/10/11 12:29:29;;;;;;;19.10;18.30;;;20.30;91.20;;;;;;5009055;28;20477;-66
2021/10/11 12:31:57;;;;;;;19.40;18.40;;;20.00;91.20;;;;;;5011518;28;20442;-66